sensor_id;sensor_type;location;lat;lon;timestamp;P1;durP1;ratioP1;P2;durP2;ratioP2
3873;SDS011;1952;50.872;6.692;2022-12-20T00:30:44;2.80;;;2.60;;
3873;SDS011;1952;50.872;6.692;2022-12-20T00:33:12;3.13;;;2.70;;
3873;SDS011;1952;50.872;6.692;2022-12-20T00:35:41;5.20;;;3.07;;
3873;SDS011;1952;50.872;6.692;2022-12-20T00:38:09;3.00;;;2.60;;
3873;SDS011;1952;50.872;6.692;2022-12-20T00:40:37;3.37;;;3.17;;
3873;SDS011;1952;50.872;6.692;2022-12-20T00:43:10;2.80;;;2.60;;
3873;SDS011;1952;50.872;6.692;2022-12-20T00:45:39;3.60;;;3.30;;
3873;SDS011;1952;50.872;6.692;2022-12-20T00:48:08;3.20;;;2.90;;
3873;SDS011;1952;50.872;6.692;2022-12-20T00:50:37;2.53;;;2.33;;
3873;SDS011;1952;50.872;6.692;2022-12-20T00:53:10;3.43;;;2.77;;
3873;SDS011;1952;50.872;6.692;2022-12-20T00:55:39;5.67;;;2.87;;
3873;SDS011;1952;50.872;6.692;2022-12-20T00:58:08;3.17;;;2.97;;
3873;SDS011;1952;50.872;6.692;2022-12-20T01:00:41;2.57;;;2.37;;
3873;SDS011;1952;50.872;6.692;2022-12-20T01:03:15;3.27;;;3.07;;
3873;SDS011;1952;50.872;6.692;2022-12-20T01:05:48;3.57;;;3.27;;
3873;SDS011;1952;50.872;6.692;2022-12-20T01:08:23;3.30;;;2.80;;
3873;SDS011;1952;50.872;6.692;2022-12-20T01:10:58;3.00;;;2.80;;
3873;SDS011;1952;50.872;6.692;2022-12-20T01:13:31;3.27;;;3.07;;
3873;SDS011;1952;50.872;6.692;2022-12-20T01:16:05;3.30;;;3.00;;
3873;SDS011;1952;50.872;6.692;2022-12-20T01:18:35;2.80;;;2.60;;
3873;SDS011;1952;50.872;6.692;2022-12-20T01:21:09;3.77;;;3.47;;
3873;SDS011;1952;50.872;6.692;2022-12-20T01:23:39;6.13;;;3.97;;
3873;SDS011;1952;50.872;6.692;2022-12-20T01:26:09;3.53;;;3.23;;
3873;SDS011;1952;50.872;6.692;2022-12-20T01:28:39;3.80;;;3.40;;
3873;SDS011;1952;50.872;6.692;2022-12-20T01:31:08;5.10;;;3.77;;
3873;SDS011;1952;50.872;6.692;2022-12-20T01:33:43;4.50;;;3.47;;
3873;SDS011;1952;50.872;6.692;2022-12-20T01:36:17;3.20;;;2.90;;
3873;SDS011;1952;50.872;6.692;2022-12-20T01:38:50;4.83;;;3.50;;
3873;SDS011;1952;50.872;6.692;2022-12-20T01:41:22;6.03;;;4.80;;
3873;SDS011;1952;50.872;6.692;2022-12-20T01:43:51;4.73;;;3.93;;
3873;SDS011;1952;50.872;6.692;2022-12-20T01:46:25;4.27;;;3.77;;
3873;SDS011;1952;50.872;6.692;2022-12-20T01:49:01;3.07;;;2.87;;
3873;SDS011;1952;50.872;6.692;2022-12-20T01:51:30;4.43;;;4.03;;
3873;SDS011;1952;50.872;6.692;2022-12-20T01:54:00;4.27;;;3.97;;
3873;SDS011;1952;50.872;6.692;2022-12-20T01:56:35;4.10;;;3.70;;
3873;SDS011;1952;50.872;6.692;2022-12-20T01:59:05;4.50;;;4.10;;
3873;SDS011;1952;50.872;6.692;2022-12-20T02:01:38;4.43;;;4.13;;
3873;SDS011;1952;50.872;6.692;2022-12-20T02:04:09;4.57;;;4.27;;
3873;SDS011;1952;50.872;6.692;2022-12-20T02:06:42;4.40;;;4.00;;
3873;SDS011;1952;50.872;6.692;2022-12-20T02:09:10;6.30;;;4.10;;
3873;SDS011;1952;50.872;6.692;2022-12-20T02:11:47;4.40;;;4.00;;
3873;SDS011;1952;50.872;6.692;2022-12-20T02:14:20;5.00;;;4.60;;
3873;SDS011;1952;50.872;6.692;2022-12-20T02:16:52;5.93;;;4.60;;
3873;SDS011;1952;50.872;6.692;2022-12-20T02:19:41;4.33;;;3.93;;
3873;SDS011;1952;50.872;6.692;2022-12-20T02:22:22;5.87;;;4.53;;
3873;SDS011;1952;50.872;6.692;2022-12-20T02:25:05;5.20;;;4.50;;
3873;SDS011;1952;50.872;6.692;2022-12-20T02:27:48;4.70;;;4.30;;
3873;SDS011;1952;50.872;6.692;2022-12-20T02:30:19;4.57;;;4.10;;
3873;SDS011;1952;50.872;6.692;2022-12-20T02:32:50;4.47;;;4.10;;
3873;SDS011;1952;50.872;6.692;2022-12-20T02:35:20;4.93;;;4.53;;
3873;SDS011;1952;50.872;6.692;2022-12-20T02:37:50;4.83;;;4.37;;
3873;SDS011;1952;50.872;6.692;2022-12-20T02:40:24;5.57;;;5.00;;
3873;SDS011;1952;50.872;6.692;2022-12-20T02:42:57;5.63;;;5.00;;
3873;SDS011;1952;50.872;6.692;2022-12-20T02:45:28;8.67;;;4.80;;
3873;SDS011;1952;50.872;6.692;2022-12-20T02:47:59;5.20;;;4.73;;
3873;SDS011;1952;50.872;6.692;2022-12-20T02:50:29;6.10;;;5.13;;
3873;SDS011;1952;50.872;6.692;2022-12-20T02:52:58;6.10;;;4.60;;
3873;SDS011;1952;50.872;6.692;2022-12-20T02:55:28;4.87;;;4.53;;
3873;SDS011;1952;50.872;6.692;2022-12-20T02:58:04;4.43;;;4.13;;
3873;SDS011;1952;50.872;6.692;2022-12-20T03:00:37;7.67;;;4.80;;
3873;SDS011;1952;50.872;6.692;2022-12-20T03:03:09;4.80;;;4.30;;
3873;SDS011;1952;50.872;6.692;2022-12-20T03:05:51;5.63;;;4.50;;
3873;SDS011;1952;50.872;6.692;2022-12-20T03:08:20;4.63;;;4.23;;
3873;SDS011;1952;50.872;6.692;2022-12-20T03:10:49;4.83;;;4.43;;
3873;SDS011;1952;50.872;6.692;2022-12-20T03:13:23;3.97;;;3.70;;
3873;SDS011;1952;50.872;6.692;2022-12-20T03:15:58;5.07;;;4.67;;
3873;SDS011;1952;50.872;6.692;2022-12-20T03:18:26;4.53;;;3.83;;
3873;SDS011;1952;50.872;6.692;2022-12-20T03:21:00;4.60;;;4.20;;
3873;SDS011;1952;50.872;6.692;2022-12-20T03:23:33;4.40;;;4.00;;
3873;SDS011;1952;50.872;6.692;2022-12-20T03:26:01;4.17;;;3.87;;
3873;SDS011;1952;50.872;6.692;2022-12-20T03:28:29;4.67;;;4.27;;
3873;SDS011;1952;50.872;6.692;2022-12-20T03:31:04;4.90;;;4.40;;
3873;SDS011;1952;50.872;6.692;2022-12-20T03:33:32;6.00;;;3.40;;
3873;SDS011;1952;50.872;6.692;2022-12-20T03:36:00;5.20;;;4.00;;
3873;SDS011;1952;50.872;6.692;2022-12-20T03:38:28;4.87;;;4.47;;
3873;SDS011;1952;50.872;6.692;2022-12-20T03:40:56;4.10;;;3.80;;
3873;SDS011;1952;50.872;6.692;2022-12-20T03:43:25;3.77;;;3.50;;
3873;SDS011;1952;50.872;6.692;2022-12-20T03:45:53;5.07;;;4.57;;
3873;SDS011;1952;50.872;6.692;2022-12-20T03:48:25;4.47;;;3.77;;
3873;SDS011;1952;50.872;6.692;2022-12-20T03:50:53;4.67;;;4.27;;
3873;SDS011;1952;50.872;6.692;2022-12-20T03:53:26;4.03;;;3.77;;
3873;SDS011;1952;50.872;6.692;2022-12-20T03:55:54;4.70;;;3.77;;
3873;SDS011;1952;50.872;6.692;2022-12-20T03:58:22;4.07;;;3.77;;
3873;SDS011;1952;50.872;6.692;2022-12-20T04:00:56;6.57;;;4.00;;
3873;SDS011;1952;50.872;6.692;2022-12-20T04:03:25;4.47;;;4.17;;
3873;SDS011;1952;50.872;6.692;2022-12-20T04:05:54;4.30;;;3.90;;
3873;SDS011;1952;50.872;6.692;2022-12-20T04:08:27;4.63;;;4.20;;
3873;SDS011;1952;50.872;6.692;2022-12-20T04:11:00;3.90;;;3.57;;
3873;SDS011;1952;50.872;6.692;2022-12-20T04:13:44;4.67;;;4.27;;
3873;SDS011;1952;50.872;6.692;2022-12-20T04:16:19;8.83;;;4.17;;
3873;SDS011;1952;50.872;6.692;2022-12-20T04:18:53;6.33;;;4.70;;
3873;SDS011;1952;50.872;6.692;2022-12-20T04:21:27;4.00;;;3.70;;
3873;SDS011;1952;50.872;6.692;2022-12-20T04:23:56;5.83;;;5.20;;
3873;SDS011;1952;50.872;6.692;2022-12-20T04:26:25;5.13;;;4.00;;
3873;SDS011;1952;50.872;6.692;2022-12-20T04:28:53;5.03;;;4.53;;
3873;SDS011;1952;50.872;6.692;2022-12-20T04:31:26;4.27;;;3.97;;
3873;SDS011;1952;50.872;6.692;2022-12-20T04:33:56;5.70;;;4.60;;
3873;SDS011;1952;50.872;6.692;2022-12-20T04:36:24;6.10;;;4.60;;
3873;SDS011;1952;50.872;6.692;2022-12-20T04:38:52;5.30;;;4.80;;
3873;SDS011;1952;50.872;6.692;2022-12-20T04:41:20;6.30;;;4.30;;
3873;SDS011;1952;50.872;6.692;2022-12-20T04:43:49;4.93;;;3.60;;
3873;SDS011;1952;50.872;6.692;2022-12-20T04:46:17;6.40;;;4.23;;
3873;SDS011;1952;50.872;6.692;2022-12-20T04:48:45;4.10;;;3.77;;
3873;SDS011;1952;50.872;6.692;2022-12-20T04:51:25;4.03;;;3.63;;
3873;SDS011;1952;50.872;6.692;2022-12-20T04:53:54;5.17;;;4.77;;
3873;SDS011;1952;50.872;6.692;2022-12-20T04:56:22;4.30;;;3.93;;
3873;SDS011;1952;50.872;6.692;2022-12-20T04:58:56;7.03;;;5.53;;
3873;SDS011;1952;50.872;6.692;2022-12-20T05:01:25;8.93;;;4.97;;
3873;SDS011;1952;50.872;6.692;2022-12-20T05:03:58;5.80;;;4.93;;
3873;SDS011;1952;50.872;6.692;2022-12-20T05:06:29;8.50;;;5.53;;
3873;SDS011;1952;50.872;6.692;2022-12-20T05:09:02;5.27;;;3.90;;
3873;SDS011;1952;50.872;6.692;2022-12-20T05:11:30;4.60;;;4.30;;
3873;SDS011;1952;50.872;6.692;2022-12-20T05:13:58;4.60;;;4.20;;
3873;SDS011;1952;50.872;6.692;2022-12-20T05:16:26;4.97;;;4.67;;
3873;SDS011;1952;50.872;6.692;2022-12-20T05:18:55;4.43;;;4.00;;
3873;SDS011;1952;50.872;6.692;2022-12-20T05:21:23;4.77;;;4.37;;
3873;SDS011;1952;50.872;6.692;2022-12-20T05:24:10;5.90;;;5.10;;
3873;SDS011;1952;50.872;6.692;2022-12-20T05:26:55;6.57;;;6.07;;
3873;SDS011;1952;50.872;6.692;2022-12-20T05:29:24;7.83;;;5.87;;
3873;SDS011;1952;50.872;6.692;2022-12-20T05:31:57;5.03;;;4.53;;
3873;SDS011;1952;50.872;6.692;2022-12-20T05:34:25;6.30;;;5.23;;
3873;SDS011;1952;50.872;6.692;2022-12-20T05:36:53;4.70;;;4.40;;
3873;SDS011;1952;50.872;6.692;2022-12-20T05:39:28;5.03;;;4.40;;
3873;SDS011;1952;50.872;6.692;2022-12-20T05:41:56;4.50;;;4.00;;
3873;SDS011;1952;50.872;6.692;2022-12-20T05:44:24;5.13;;;4.63;;
3873;SDS011;1952;50.872;6.692;2022-12-20T05:46:57;4.77;;;4.43;;
3873;SDS011;1952;50.872;6.692;2022-12-20T05:49:31;4.70;;;4.20;;
3873;SDS011;1952;50.872;6.692;2022-12-20T05:52:04;4.57;;;4.27;;
3873;SDS011;1952;50.872;6.692;2022-12-20T06:33:06;7.97;;;5.40;;
3873;SDS011;1952;50.872;6.692;2022-12-20T06:35:34;5.47;;;4.27;;
3873;SDS011;1952;50.872;6.692;2022-12-20T06:38:02;5.93;;;4.40;;
3873;SDS011;1952;50.872;6.692;2022-12-20T06:40:31;4.03;;;3.73;;
3873;SDS011;1952;50.872;6.692;2022-12-20T06:42:59;4.40;;;4.10;;
3873;SDS011;1952;50.872;6.692;2022-12-20T06:45:27;4.13;;;3.83;;
3873;SDS011;1952;50.872;6.692;2022-12-20T06:48:00;3.83;;;3.53;;
3873;SDS011;1952;50.872;6.692;2022-12-20T06:50:30;5.70;;;3.93;;
3873;SDS011;1952;50.872;6.692;2022-12-20T06:52:59;7.83;;;4.47;;
3873;SDS011;1952;50.872;6.692;2022-12-20T06:55:33;6.27;;;5.10;;
3873;SDS011;1952;50.872;6.692;2022-12-20T06:58:02;17.17;;;11.60;;
3873;SDS011;1952;50.872;6.692;2022-12-20T07:00:30;25.60;;;14.37;;
3873;SDS011;1952;50.872;6.692;2022-12-20T07:02:59;13.83;;;9.40;;
3873;SDS011;1952;50.872;6.692;2022-12-20T07:05:27;35.93;;;17.50;;
3873;SDS011;1952;50.872;6.692;2022-12-20T07:07:56;71.33;;;33.97;;
3873;SDS011;1952;50.872;6.692;2022-12-20T07:10:25;31.17;;;15.97;;
3873;SDS011;1952;50.872;6.692;2022-12-20T07:12:53;37.87;;;23.37;;
3873;SDS011;1952;50.872;6.692;2022-12-20T07:15:21;16.30;;;14.23;;
3873;SDS011;1952;50.872;6.692;2022-12-20T07:17:54;9.60;;;8.50;;
3873;SDS011;1952;50.872;6.692;2022-12-20T07:20:23;8.63;;;7.50;;
3873;SDS011;1952;50.872;6.692;2022-12-20T07:22:51;5.60;;;4.80;;
3873;SDS011;1952;50.872;6.692;2022-12-20T07:25:21;6.73;;;6.13;;
3873;SDS011;1952;50.872;6.692;2022-12-20T07:27:51;6.40;;;5.80;;
3873;SDS011;1952;50.872;6.692;2022-12-20T07:30:19;5.90;;;5.40;;
3873;SDS011;1952;50.872;6.692;2022-12-20T07:32:51;5.77;;;4.10;;
3873;SDS011;1952;50.872;6.692;2022-12-20T07:35:19;3.70;;;3.40;;
3873;SDS011;1952;50.872;6.692;2022-12-20T07:37:48;5.47;;;4.00;;
3873;SDS011;1952;50.872;6.692;2022-12-20T07:40:17;4.70;;;3.97;;
3873;SDS011;1952;50.872;6.692;2022-12-20T07:42:48;3.50;;;3.30;;
3873;SDS011;1952;50.872;6.692;2022-12-20T07:45:17;3.93;;;3.53;;
3873;SDS011;1952;50.872;6.692;2022-12-20T07:47:45;4.80;;;4.33;;
3873;SDS011;1952;50.872;6.692;2022-12-20T07:50:14;4.70;;;3.97;;
3873;SDS011;1952;50.872;6.692;2022-12-20T07:52:48;3.40;;;3.10;;
3873;SDS011;1952;50.872;6.692;2022-12-20T07:55:18;3.47;;;3.27;;
3873;SDS011;1952;50.872;6.692;2022-12-20T07:57:48;3.57;;;3.27;;
3873;SDS011;1952;50.872;6.692;2022-12-20T08:00:18;4.50;;;3.73;;
3873;SDS011;1952;50.872;6.692;2022-12-20T08:02:47;7.80;;;3.60;;
3873;SDS011;1952;50.872;6.692;2022-12-20T08:05:27;5.00;;;3.60;;
3873;SDS011;1952;50.872;6.692;2022-12-20T08:07:55;4.13;;;3.83;;
3873;SDS011;1952;50.872;6.692;2022-12-20T08:10:25;3.73;;;3.40;;
3873;SDS011;1952;50.872;6.692;2022-12-20T08:12:58;3.63;;;3.33;;
3873;SDS011;1952;50.872;6.692;2022-12-20T08:15:29;4.33;;;3.40;;
3873;SDS011;1952;50.872;6.692;2022-12-20T08:17:58;4.00;;;3.67;;
3873;SDS011;1952;50.872;6.692;2022-12-20T08:20:26;4.03;;;3.00;;
3873;SDS011;1952;50.872;6.692;2022-12-20T08:23:01;3.93;;;3.43;;
3873;SDS011;1952;50.872;6.692;2022-12-20T08:25:32;3.70;;;3.40;;
3873;SDS011;1952;50.872;6.692;2022-12-20T08:28:12;4.83;;;4.20;;
3873;SDS011;1952;50.872;6.692;2022-12-20T08:30:41;5.33;;;3.40;;
3873;SDS011;1952;50.872;6.692;2022-12-20T08:33:14;3.70;;;2.80;;
3873;SDS011;1952;50.872;6.692;2022-12-20T08:35:43;3.50;;;3.20;;
3873;SDS011;1952;50.872;6.692;2022-12-20T08:38:11;3.17;;;2.87;;
3873;SDS011;1952;50.872;6.692;2022-12-20T08:40:41;3.10;;;2.90;;
3873;SDS011;1952;50.872;6.692;2022-12-20T08:43:11;5.00;;;3.87;;
3873;SDS011;1952;50.872;6.692;2022-12-20T08:45:39;3.33;;;3.03;;
3873;SDS011;1952;50.872;6.692;2022-12-20T08:48:07;4.67;;;4.27;;
3873;SDS011;1952;50.872;6.692;2022-12-20T08:50:37;3.70;;;3.33;;
3873;SDS011;1952;50.872;6.692;2022-12-20T08:53:05;4.63;;;3.60;;
3873;SDS011;1952;50.872;6.692;2022-12-20T08:55:38;5.83;;;5.27;;
3873;SDS011;1952;50.872;6.692;2022-12-20T08:58:08;3.90;;;3.60;;
3873;SDS011;1952;50.872;6.692;2022-12-20T09:00:42;4.43;;;3.33;;
3873;SDS011;1952;50.872;6.692;2022-12-20T09:03:11;5.77;;;4.20;;
3873;SDS011;1952;50.872;6.692;2022-12-20T09:05:45;4.07;;;3.77;;
3873;SDS011;1952;50.872;6.692;2022-12-20T09:08:15;3.23;;;3.03;;
3873;SDS011;1952;50.872;6.692;2022-12-20T09:10:44;3.83;;;3.53;;
3873;SDS011;1952;50.872;6.692;2022-12-20T09:13:13;4.43;;;3.57;;
3873;SDS011;1952;50.872;6.692;2022-12-20T09:18:35;3.57;;;3.20;;
3873;SDS011;1952;50.872;6.692;2022-12-20T09:21:04;3.40;;;3.20;;
3873;SDS011;1952;50.872;6.692;2022-12-20T09:23:48;4.37;;;3.97;;
3873;SDS011;1952;50.872;6.692;2022-12-20T09:26:23;4.20;;;3.87;;
3873;SDS011;1952;50.872;6.692;2022-12-20T09:28:51;4.47;;;4.07;;
3873;SDS011;1952;50.872;6.692;2022-12-20T09:31:25;4.03;;;3.70;;
3873;SDS011;1952;50.872;6.692;2022-12-20T09:33:55;4.90;;;4.30;;
3873;SDS011;1952;50.872;6.692;2022-12-20T09:36:24;4.70;;;4.30;;
3873;SDS011;1952;50.872;6.692;2022-12-20T09:39:21;4.40;;;4.10;;
3873;SDS011;1952;50.872;6.692;2022-12-20T09:41:49;4.27;;;3.90;;
3873;SDS011;1952;50.872;6.692;2022-12-20T09:44:32;4.60;;;4.00;;
3873;SDS011;1952;50.872;6.692;2022-12-20T09:47:03;4.10;;;3.60;;
3873;SDS011;1952;50.872;6.692;2022-12-20T09:49:39;3.63;;;3.33;;
3873;SDS011;1952;50.872;6.692;2022-12-20T09:52:15;4.57;;;4.20;;
3873;SDS011;1952;50.872;6.692;2022-12-20T09:57:59;3.73;;;3.47;;
3873;SDS011;1952;50.872;6.692;2022-12-20T10:03:34;3.60;;;3.30;;
3873;SDS011;1952;50.872;6.692;2022-12-20T10:06:34;3.30;;;3.00;;
3873;SDS011;1952;50.872;6.692;2022-12-20T10:09:10;3.90;;;3.60;;
3873;SDS011;1952;50.872;6.692;2022-12-20T10:11:53;3.50;;;3.20;;
3873;SDS011;1952;50.872;6.692;2022-12-20T10:14:29;4.63;;;3.40;;
3873;SDS011;1952;50.872;6.692;2022-12-20T10:17:03;5.57;;;3.30;;
3873;SDS011;1952;50.872;6.692;2022-12-20T10:19:50;4.40;;;3.20;;
3873;SDS011;1952;50.872;6.692;2022-12-20T10:22:36;3.17;;;2.97;;
3873;SDS011;1952;50.872;6.692;2022-12-20T10:25:12;4.40;;;4.00;;
3873;SDS011;1952;50.872;6.692;2022-12-20T10:28:04;6.43;;;4.10;;
3873;SDS011;1952;50.872;6.692;2022-12-20T10:30:38;4.40;;;4.00;;
3873;SDS011;1952;50.872;6.692;2022-12-20T10:33:13;3.40;;;3.10;;
3873;SDS011;1952;50.872;6.692;2022-12-20T10:35:48;3.50;;;3.20;;
3873;SDS011;1952;50.872;6.692;2022-12-20T10:38:19;3.10;;;2.73;;
3873;SDS011;1952;50.872;6.692;2022-12-20T10:40:58;3.50;;;3.20;;
3873;SDS011;1952;50.872;6.692;2022-12-20T10:43:49;3.77;;;3.37;;
3873;SDS011;1952;50.872;6.692;2022-12-20T10:46:33;3.43;;;3.07;;
3873;SDS011;1952;50.872;6.692;2022-12-20T10:49:21;6.50;;;3.50;;
3873;SDS011;1952;50.872;6.692;2022-12-20T10:51:51;3.10;;;2.90;;
3873;SDS011;1952;50.872;6.692;2022-12-20T10:54:23;3.37;;;2.83;;
3873;SDS011;1952;50.872;6.692;2022-12-20T10:56:58;4.23;;;3.93;;
3873;SDS011;1952;50.872;6.692;2022-12-20T10:59:32;5.40;;;3.97;;
3873;SDS011;1952;50.872;6.692;2022-12-20T11:02:09;4.03;;;3.70;;
3873;SDS011;1952;50.872;6.692;2022-12-20T11:04:57;2.87;;;2.60;;
3873;SDS011;1952;50.872;6.692;2022-12-20T11:07:32;2.80;;;2.67;;
3873;SDS011;1952;50.872;6.692;2022-12-20T11:12:55;3.10;;;2.40;;
3873;SDS011;1952;50.872;6.692;2022-12-20T11:15:35;5.47;;;2.83;;
3873;SDS011;1952;50.872;6.692;2022-12-20T11:18:42;2.80;;;2.60;;
3873;SDS011;1952;50.872;6.692;2022-12-20T11:21:40;3.03;;;2.83;;
3873;SDS011;1952;50.872;6.692;2022-12-20T11:24:25;2.57;;;2.37;;
3873;SDS011;1952;50.872;6.692;2022-12-20T11:26:59;3.13;;;2.83;;
3873;SDS011;1952;50.872;6.692;2022-12-20T11:29:59;3.43;;;2.47;;
3873;SDS011;1952;50.872;6.692;2022-12-20T11:32:35;2.80;;;2.60;;
3873;SDS011;1952;50.872;6.692;2022-12-20T11:35:21;2.60;;;2.40;;
3873;SDS011;1952;50.872;6.692;2022-12-20T11:38:14;2.57;;;2.37;;
3873;SDS011;1952;50.872;6.692;2022-12-20T11:41:13;4.17;;;2.30;;
3873;SDS011;1952;50.872;6.692;2022-12-20T11:43:57;3.33;;;2.17;;
3873;SDS011;1952;50.872;6.692;2022-12-20T11:52:51;2.73;;;2.37;;
3873;SDS011;1952;50.872;6.692;2022-12-20T12:33:36;3.03;;;2.83;;
3873;SDS011;1952;50.872;6.692;2022-12-20T12:36:26;2.77;;;2.57;;
3873;SDS011;1952;50.872;6.692;2022-12-20T12:42:22;4.37;;;3.30;;
3873;SDS011;1952;50.872;6.692;2022-12-20T12:45:14;3.27;;;2.97;;
3873;SDS011;1952;50.872;6.692;2022-12-20T12:47:47;3.63;;;3.33;;
3873;SDS011;1952;50.872;6.692;2022-12-20T12:50:34;4.30;;;3.20;;
3873;SDS011;1952;50.872;6.692;2022-12-20T12:53:12;2.87;;;2.67;;
3873;SDS011;1952;50.872;6.692;2022-12-20T12:55:42;2.43;;;2.30;;
3873;SDS011;1952;50.872;6.692;2022-12-20T12:58:26;3.03;;;2.70;;
3873;SDS011;1952;50.872;6.692;2022-12-20T13:00:57;2.67;;;2.47;;
3873;SDS011;1952;50.872;6.692;2022-12-20T13:03:39;5.33;;;2.83;;
3873;SDS011;1952;50.872;6.692;2022-12-20T13:09:16;2.93;;;2.73;;
3873;SDS011;1952;50.872;6.692;2022-12-20T13:11:46;3.43;;;3.13;;
3873;SDS011;1952;50.872;6.692;2022-12-20T13:14:48;3.20;;;2.43;;
3873;SDS011;1952;50.872;6.692;2022-12-20T13:17:46;2.57;;;2.40;;
3873;SDS011;1952;50.872;6.692;2022-12-20T13:20:32;2.90;;;2.70;;
3873;SDS011;1952;50.872;6.692;2022-12-20T13:23:15;3.70;;;2.57;;
3873;SDS011;1952;50.872;6.692;2022-12-20T13:25:46;5.03;;;3.17;;
3873;SDS011;1952;50.872;6.692;2022-12-20T13:31:29;3.17;;;2.83;;
3873;SDS011;1952;50.872;6.692;2022-12-20T13:33:59;2.50;;;2.40;;
3873;SDS011;1952;50.872;6.692;2022-12-20T13:36:32;2.43;;;2.23;;
3873;SDS011;1952;50.872;6.692;2022-12-20T13:42:10;2.93;;;2.20;;
3873;SDS011;1952;50.872;6.692;2022-12-20T13:44:41;2.67;;;2.00;;
3873;SDS011;1952;50.872;6.692;2022-12-20T13:47:22;2.17;;;2.00;;
3873;SDS011;1952;50.872;6.692;2022-12-20T13:50:00;2.80;;;2.60;;
3873;SDS011;1952;50.872;6.692;2022-12-20T13:53:15;2.87;;;2.60;;
3873;SDS011;1952;50.872;6.692;2022-12-20T13:55:44;3.17;;;2.93;;
3873;SDS011;1952;50.872;6.692;2022-12-20T13:58:20;2.37;;;2.27;;
3873;SDS011;1952;50.872;6.692;2022-12-20T14:00:49;2.87;;;2.13;;
3873;SDS011;1952;50.872;6.692;2022-12-20T14:03:19;2.90;;;2.60;;
3873;SDS011;1952;50.872;6.692;2022-12-20T14:05:49;3.13;;;2.93;;
3873;SDS011;1952;50.872;6.692;2022-12-20T14:08:25;2.50;;;2.30;;
3873;SDS011;1952;50.872;6.692;2022-12-20T14:11:06;2.30;;;2.10;;
3873;SDS011;1952;50.872;6.692;2022-12-20T14:13:40;6.47;;;2.70;;
3873;SDS011;1952;50.872;6.692;2022-12-20T14:16:15;2.40;;;2.20;;
3873;SDS011;1952;50.872;6.692;2022-12-20T14:18:48;2.37;;;2.17;;
3873;SDS011;1952;50.872;6.692;2022-12-20T14:21:17;2.23;;;2.13;;
3873;SDS011;1952;50.872;6.692;2022-12-20T14:23:46;2.20;;;2.10;;
3873;SDS011;1952;50.872;6.692;2022-12-20T14:26:21;2.50;;;2.23;;
3873;SDS011;1952;50.872;6.692;2022-12-20T14:29:08;3.10;;;2.80;;
3873;SDS011;1952;50.872;6.692;2022-12-20T14:31:39;2.80;;;2.60;;
3873;SDS011;1952;50.872;6.692;2022-12-20T14:34:10;2.77;;;2.57;;
3873;SDS011;1952;50.872;6.692;2022-12-20T14:36:42;2.87;;;2.30;;
3873;SDS011;1952;50.872;6.692;2022-12-20T14:39:23;3.23;;;2.20;;
3873;SDS011;1952;50.872;6.692;2022-12-20T14:41:56;3.40;;;3.20;;
3873;SDS011;1952;50.872;6.692;2022-12-20T14:44:27;5.27;;;2.50;;
3873;SDS011;1952;50.872;6.692;2022-12-20T14:46:56;2.57;;;2.20;;
3873;SDS011;1952;50.872;6.692;2022-12-20T14:49:35;2.87;;;2.60;;
3873;SDS011;1952;50.872;6.692;2022-12-20T14:52:06;3.23;;;2.40;;
3873;SDS011;1952;50.872;6.692;2022-12-20T14:54:39;2.80;;;2.60;;
3873;SDS011;1952;50.872;6.692;2022-12-20T14:57:30;2.43;;;2.27;;
3873;SDS011;1952;50.872;6.692;2022-12-20T15:00:04;2.97;;;2.73;;
3873;SDS011;1952;50.872;6.692;2022-12-20T15:02:39;2.77;;;2.50;;
3873;SDS011;1952;50.872;6.692;2022-12-20T15:08:08;2.30;;;2.10;;
3873;SDS011;1952;50.872;6.692;2022-12-20T15:10:54;6.77;;;2.40;;
3873;SDS011;1952;50.872;6.692;2022-12-20T15:13:31;3.03;;;2.83;;
3873;SDS011;1952;50.872;6.692;2022-12-20T15:16:02;5.97;;;3.67;;
3873;SDS011;1952;50.872;6.692;2022-12-20T15:18:36;3.27;;;2.97;;
3873;SDS011;1952;50.872;6.692;2022-12-20T15:21:10;3.57;;;2.83;;
3873;SDS011;1952;50.872;6.692;2022-12-20T15:23:41;3.67;;;3.37;;
3873;SDS011;1952;50.872;6.692;2022-12-20T15:26:11;3.97;;;3.67;;
3873;SDS011;1952;50.872;6.692;2022-12-20T15:28:41;3.67;;;3.30;;
3873;SDS011;1952;50.872;6.692;2022-12-20T15:31:13;4.33;;;3.23;;
3873;SDS011;1952;50.872;6.692;2022-12-20T15:33:43;4.17;;;3.77;;
3873;SDS011;1952;50.872;6.692;2022-12-20T15:36:12;4.20;;;2.73;;
3873;SDS011;1952;50.872;6.692;2022-12-20T15:38:51;3.10;;;2.90;;
3873;SDS011;1952;50.872;6.692;2022-12-20T15:41:25;6.03;;;5.10;;
3873;SDS011;1952;50.872;6.692;2022-12-20T15:43:54;4.33;;;4.00;;
3873;SDS011;1952;50.872;6.692;2022-12-20T15:46:27;3.40;;;3.20;;
3873;SDS011;1952;50.872;6.692;2022-12-20T15:48:56;4.20;;;3.90;;
3873;SDS011;1952;50.872;6.692;2022-12-20T15:51:25;4.30;;;3.90;;
3873;SDS011;1952;50.872;6.692;2022-12-20T15:54:00;4.20;;;3.90;;
3873;SDS011;1952;50.872;6.692;2022-12-20T15:56:28;4.43;;;3.43;;
3873;SDS011;1952;50.872;6.692;2022-12-20T15:59:02;4.00;;;3.60;;
3873;SDS011;1952;50.872;6.692;2022-12-20T16:01:51;3.43;;;3.10;;
3873;SDS011;1952;50.872;6.692;2022-12-20T16:04:20;3.97;;;3.30;;
3873;SDS011;1952;50.872;6.692;2022-12-20T16:06:54;3.57;;;3.27;;
3873;SDS011;1952;50.872;6.692;2022-12-20T16:09:22;6.07;;;3.80;;
3873;SDS011;1952;50.872;6.692;2022-12-20T16:11:57;6.00;;;4.57;;
3873;SDS011;1952;50.872;6.692;2022-12-20T16:14:30;6.23;;;5.73;;
3873;SDS011;1952;50.872;6.692;2022-12-20T16:17:01;5.80;;;5.30;;
3873;SDS011;1952;50.872;6.692;2022-12-20T16:19:29;6.80;;;4.40;;
3873;SDS011;1952;50.872;6.692;2022-12-20T16:21:58;6.33;;;5.63;;
3873;SDS011;1952;50.872;6.692;2022-12-20T16:24:31;5.97;;;5.47;;
3873;SDS011;1952;50.872;6.692;2022-12-20T16:26:59;5.37;;;4.37;;
3873;SDS011;1952;50.872;6.692;2022-12-20T16:29:27;5.07;;;4.00;;
3873;SDS011;1952;50.872;6.692;2022-12-20T16:32:02;3.83;;;3.40;;
3873;SDS011;1952;50.872;6.692;2022-12-20T16:34:38;3.70;;;3.33;;
3873;SDS011;1952;50.872;6.692;2022-12-20T16:37:06;4.70;;;3.50;;
3873;SDS011;1952;50.872;6.692;2022-12-20T16:39:39;4.70;;;3.80;;
3873;SDS011;1952;50.872;6.692;2022-12-20T16:42:13;4.53;;;3.90;;
3873;SDS011;1952;50.872;6.692;2022-12-20T16:44:46;3.70;;;3.40;;
3873;SDS011;1952;50.872;6.692;2022-12-20T16:47:18;4.90;;;4.33;;
3873;SDS011;1952;50.872;6.692;2022-12-20T16:49:47;4.53;;;4.10;;
3873;SDS011;1952;50.872;6.692;2022-12-20T16:52:21;3.80;;;3.47;;
3873;SDS011;1952;50.872;6.692;2022-12-20T16:54:55;8.83;;;4.17;;
3873;SDS011;1952;50.872;6.692;2022-12-20T16:57:23;6.20;;;4.00;;
3873;SDS011;1952;50.872;6.692;2022-12-20T17:00:03;4.63;;;3.70;;
3873;SDS011;1952;50.872;6.692;2022-12-20T17:02:38;8.00;;;4.17;;
3873;SDS011;1952;50.872;6.692;2022-12-20T17:05:09;4.20;;;3.90;;
3873;SDS011;1952;50.872;6.692;2022-12-20T17:07:49;3.60;;;3.00;;
3873;SDS011;1952;50.872;6.692;2022-12-20T17:10:17;5.67;;;4.17;;
3873;SDS011;1952;50.872;6.692;2022-12-20T17:12:46;5.60;;;4.20;;
3873;SDS011;1952;50.872;6.692;2022-12-20T17:15:18;8.07;;;5.10;;
3873;SDS011;1952;50.872;6.692;2022-12-20T17:17:49;5.57;;;5.17;;
3873;SDS011;1952;50.872;6.692;2022-12-20T17:20:18;4.77;;;4.10;;
3873;SDS011;1952;50.872;6.692;2022-12-20T17:22:47;3.90;;;3.60;;
3873;SDS011;1952;50.872;6.692;2022-12-20T17:25:34;4.30;;;4.00;;
3873;SDS011;1952;50.872;6.692;2022-12-20T17:28:03;3.97;;;3.57;;
3873;SDS011;1952;50.872;6.692;2022-12-20T17:30:33;4.40;;;4.00;;
3873;SDS011;1952;50.872;6.692;2022-12-20T17:33:14;4.07;;;3.67;;
3873;SDS011;1952;50.872;6.692;2022-12-20T17:35:43;4.50;;;4.10;;
3873;SDS011;1952;50.872;6.692;2022-12-20T17:38:11;4.07;;;3.77;;
3873;SDS011;1952;50.872;6.692;2022-12-20T17:40:39;4.03;;;3.10;;
3873;SDS011;1952;50.872;6.692;2022-12-20T17:43:12;3.90;;;3.60;;
3873;SDS011;1952;50.872;6.692;2022-12-20T17:45:42;4.27;;;3.87;;
3873;SDS011;1952;50.872;6.692;2022-12-20T17:48:17;6.00;;;3.83;;
3873;SDS011;1952;50.872;6.692;2022-12-20T17:50:50;4.50;;;3.27;;
3873;SDS011;1952;50.872;6.692;2022-12-20T17:53:20;5.03;;;4.30;;
3873;SDS011;1952;50.872;6.692;2022-12-20T18:34:55;10.20;;;6.50;;
3873;SDS011;1952;50.872;6.692;2022-12-20T18:37:23;12.30;;;8.97;;
3873;SDS011;1952;50.872;6.692;2022-12-20T18:39:51;9.27;;;7.47;;
3873;SDS011;1952;50.872;6.692;2022-12-20T18:42:20;8.47;;;7.70;;
3873;SDS011;1952;50.872;6.692;2022-12-20T18:44:53;14.03;;;9.57;;
3873;SDS011;1952;50.872;6.692;2022-12-20T18:47:21;11.47;;;7.60;;
3873;SDS011;1952;50.872;6.692;2022-12-20T18:49:56;9.00;;;8.20;;
3873;SDS011;1952;50.872;6.692;2022-12-20T18:52:30;8.07;;;7.13;;